METAR Reports From Nearby Airports

 

KLUD - Decatur, Texas, USA
Distance from Wildwood: ESE 5mi, 8km
Updated: Feb 17, 2020 9:35pm
Clear
Clear
 Wind from N
Wind: N 6 mph , 9 km/h
Temperature: 57°F , 14°C
Dew Point: 48°F , 9°C
Humidity: 72%
Barometer: 29.85 inHg , 1010.8 hPa
Clouds: Clear
Visibility: 7 miles , 11 km
2020/02/18 03:35 KLUD 180335Z AUTO 36005KT 7SM CLR 14/09 A2985 RMK AO2 T01360087
KXBP - Bridgeport, Texas, USA
Distance from Wildwood: WSW 11mi, 18km
Updated: Feb 17, 2020 9:15pm
Clear
Clear
 Wind from calm
Wind: Calm
Temperature: 54°F , 12°C
Dew Point: 46°F , 8°C
Humidity: 77%
Barometer: 29.87 inHg , 1011.5 hPa
Clouds: Clear
Visibility: 10 miles , 16 km
2020/02/18 03:15 KXBP 180315Z AUTO 00000KT 10SM CLR 12/08 A2987 RMK AO2 T01190079
 
K0F2 - Bowie, Texas, USA
Distance from Wildwood: NNW 24mi, 39km
Updated: Feb 17, 2020 9:35pm
Clear
Clear
 Wind from NNE
Wind: NNE 5 mph , 7 km/h
Temperature: 57°F , 14°C
Dew Point: 54°F , 12°C
Humidity: 88%
Barometer: 29.85 inHg , 1010.8 hPa
Clouds: Clear
Visibility: 10 miles , 16 km
2020/02/18 03:35 K0F2 180335Z AUTO 02004KT 10SM CLR 14/12 A2985 RMK AO2 T01440116
KDTO - Denton, Texas, USA
Distance from Wildwood: E 27mi, 44km
Updated: Feb 17, 2020 8:53pm
Clear
Clear
 Wind from NNW
Wind: NNW 5 mph , 7 km/h
Temperature: 57°F , 14°C
Dew Point: 46°F , 8°C
Humidity: 67%
Barometer: 29.84 inHg , 1010.5 hPa
Clouds: Clear
Visibility: 10 miles , 16 km
2020/02/18 02:53 KDTO 180253Z 34004KT 10SM CLR 14/08 A2984 RMK AO2 SLP099 T01390083 51024
 
KAFW - Ft Worth/Allianc, Texas, USA
Distance from Wildwood: SE 29mi, 46km
Updated: Feb 17, 2020 8:53pm
Mostly Cloudy
Mostly Cloudy
 Wind from NNW
Wind: NNW 5 mph , 7 km/h
Temperature: 61°F , 16°C
Dew Point: 48°F , 9°C
Humidity: 63%
Barometer: 29.83 inHg , 1010.2 hPa
Clouds: Mostly Cloudy
Visibility: 10 miles , 16 km
Cloud details: Mostly Cloudy 25000 ft
2020/02/18 02:53 KAFW 180253Z 34004KT 10SM BKN250 16/09 A2983 RMK AO2 SLP097 T01560089 51026
KFTW - Fort Worth, Texas, USA
Distance from Wildwood: SSE 34mi, 55km
Updated: Feb 17, 2020 8:53pm
Clear
Clear
 Wind from N
Wind: N 8 mph , 13 km/h
Temperature: 57°F , 14°C
Dew Point: 48°F , 9°C
Humidity: 72%
Barometer: 29.83 inHg , 1010.2 hPa
Clouds: Clear
Visibility: 10 miles , 16 km
2020/02/18 02:53 KFTW 180253Z 36007KT 10SM CLR 14/09 A2983 RMK AO2 SLP096 T01440089 51028 $
 
KNFW - Fort Worth Nas, Texas, USA
Distance from Wildwood: SSE 36mi, 58km
Updated: Feb 17, 2020 8:52pm
Clear
Clear
 Wind from N
Wind: N 3 mph , 6 km/h
Temperature: 66°F , 19°C
Dew Point: 48°F , 9°C
Humidity: 52%
Barometer: 29.83 inHg , 1010.2 hPa
Clouds: Clear
2020/02/18 02:52 KNFW 180252Z AUTO 36003KT CLR 19/09 A2983 RMK AO2 SLP086 T01890089 51029 VISNO N $
KGLE - Gainesville, Texas, USA
Distance from Wildwood: NE 38mi, 61km
Updated: Feb 17, 2020 9:15pm
Clear
Clear
 Wind from N
Wind: N 10 mph , 17 km/h
Temperature: 55°F , 13°C
Dew Point: 48°F , 9°C
Humidity: 77%
Barometer: 29.87 inHg , 1011.5 hPa
Clouds: Clear
Visibility: 10 miles , 16 km
2020/02/18 03:15 KGLE 180315Z AUTO 36009KT 10SM CLR 13/09 A2987 RMK AO2 T01300090
 
KMWL - Mineral Wells, Texas, USA
Distance from Wildwood: SW 41mi, 65km
Updated: Feb 17, 2020 8:53pm
Clear
Clear
 Wind from NW
Wind: NW 7 mph , 11 km/h
Temperature: 55°F , 13°C
Dew Point: 46°F , 8°C
Humidity: 72%
Barometer: 29.82 inHg , 1009.8 hPa
Clouds: Clear
Visibility: 10 miles , 16 km
2020/02/18 02:53 KMWL 180253Z AUTO 32006KT 10SM CLR 13/08 A2982 RMK AO2 SLP094 T01280083 51021
KDFW - Dallas/Ft Worth, Texas, USA
Distance from Wildwood: ESE 45mi, 73km
Updated: Feb 17, 2020 8:53pm
Mostly Cloudy
Mostly Cloudy
 Wind from N
Wind: N 10 mph , 17 km/h
Temperature: 63°F , 17°C
Dew Point: 48°F , 9°C
Humidity: 59%
Barometer: 29.81 inHg , 1009.5 hPa
Clouds: Mostly Cloudy
Visibility: 10 miles , 16 km
Cloud details: Partly Cloudy 24000 ft
Mostly Cloudy 30000 ft
2020/02/18 02:53 KDFW 180253Z 35009KT 10SM SCT240 BKN300 17/09 A2981 RMK AO2 SLP090 T01720089 51025 $